Time;durP1;ratioP1;P1;durP2;ratioP2;P2;SDS_P1;SDS_P2;PMS_P1;PMS_P2;Temp;Humidity;BMP_temperature;BMP_pressure;BME280_temperature;BME280_humidity;BME280_pressure;Samples;Min_cycle;Max_cycle;Signal;HPM_P1;HPM_P2
2022/03/21 00:01:48;;;;;;;13.07;9.63;;;6.40;44.40;;;;;;5012150;28;20200;-72
2022/03/21 00:04:27;;;;;;;13.17;9.53;;;6.40;44.10;;;;;;5017602;28;20191;-72
2022/03/21 00:06:52;;;;;;;13.33;9.03;;;6.60;43.80;;;;;;5002823;28;20671;-72
2022/03/21 00:09:18;;;;;;;12.27;8.53;;;6.50;43.80;;;;;;5014297;28;20184;-72
2022/03/21 00:11:43;;;;;;;11.90;8.77;;;6.50;43.90;;;;;;5015777;28;20655;-72
2022/03/21 00:14:11;;;;;;;11.97;9.13;;;6.40;43.80;;;;;;5006889;28;20200;-72
2022/03/21 00:16:37;;;;;;;10.27;8.60;;;6.40;44.00;;;;;;5007234;28;20215;-73
2022/03/21 00:19:03;;;;;;;10.40;8.67;;;6.40;43.90;;;;;;5007533;28;20203;-73
2022/03/21 00:21:29;;;;;;;10.33;8.13;;;6.30;43.90;;;;;;5012136;28;20207;-73
2022/03/21 00:23:54;;;;;;;14.17;9.67;;;6.50;43.50;;;;;;5022758;28;20551;-72
2022/03/21 00:26:20;;;;;;;10.90;8.37;;;6.40;43.70;;;;;;5011559;28;20701;-73
2022/03/21 00:28:46;;;;;;;13.13;9.40;;;6.30;44.10;;;;;;5013770;28;20266;-73
2022/03/21 00:31:11;;;;;;;12.27;9.57;;;6.30;44.30;;;;;;5010401;28;20599;-74
2022/03/21 00:33:37;;;;;;;12.03;8.70;;;6.30;44.50;;;;;;5016941;28;20554;-73
2022/03/21 00:36:05;;;;;;;12.53;9.43;;;6.30;44.20;;;;;;5003706;28;20719;-72
2022/03/21 00:38:31;;;;;;;17.67;9.10;;;6.20;44.60;;;;;;5010604;28;20199;-75
2022/03/21 00:40:57;;;;;;;12.83;10.40;;;6.20;44.60;;;;;;5008780;28;20302;-72
2022/03/21 00:43:23;;;;;;;13.47;8.93;;;6.10;45.00;;;;;;5012039;28;20203;-73
2022/03/21 00:45:54;;;;;;;12.63;9.37;;;6.20;44.90;;;;;;5004313;28;20607;-72
2022/03/21 00:48:24;;;;;;;15.47;10.20;;;6.20;44.90;;;;;;5013098;28;20215;-72
2022/03/21 00:50:50;;;;;;;12.37;9.67;;;6.00;45.40;;;;;;5016133;28;20196;-73
2022/03/21 00:53:16;;;;;;;11.87;9.07;;;6.00;45.40;;;;;;5009809;28;20777;-66
2022/03/21 00:55:42;;;;;;;12.63;9.23;;;6.00;45.30;;;;;;5023834;28;20199;-82
2022/03/21 00:58:08;;;;;;;16.07;9.93;;;6.00;45.40;;;;;;5016609;28;20559;-73
2022/03/21 01:00:33;;;;;;;13.50;9.27;;;5.90;45.30;;;;;;5021440;28;20192;-68
2022/03/21 01:03:00;;;;;;;10.73;8.70;;;5.90;45.60;;;;;;5016732;28;20556;-71
2022/03/21 01:05:26;;;;;;;14.17;9.97;;;5.80;45.80;;;;;;5019413;28;20188;-71
2022/03/21 01:07:53;;;;;;;14.60;9.17;;;5.60;46.20;;;;;;5019402;28;20748;-71
2022/03/21 01:10:20;;;;;;;11.97;10.00;;;5.70;46.10;;;;;;5005272;28;20188;-67
2022/03/21 01:12:47;;;;;;;12.83;9.73;;;5.60;46.20;;;;;;5014256;28;20556;-69
2022/03/21 01:15:14;;;;;;;13.73;9.57;;;5.70;45.90;;;;;;5022426;28;20200;-67
2022/03/21 01:17:42;;;;;;;10.83;9.50;;;5.80;46.10;;;;;;5003556;28;20674;-67
2022/03/21 01:20:08;;;;;;;13.63;8.67;;;5.70;45.90;;;;;;5020801;28;20200;-66
2022/03/21 01:22:34;;;;;;;10.93;9.50;;;5.80;46.00;;;;;;5017768;28;20215;-68
2022/03/21 01:25:00;;;;;;;10.97;8.37;;;5.80;45.80;;;;;;5020103;28;20208;-66
2022/03/21 01:27:25;;;;;;;14.13;9.93;;;5.70;46.20;;;;;;5020752;28;20219;-67
2022/03/21 01:29:55;;;;;;;15.97;10.67;;;5.70;45.90;;;;;;5002541;28;20272;-69
2022/03/21 01:32:20;;;;;;;10.63;8.80;;;5.60;46.80;;;;;;5007167;28;20206;-67
2022/03/21 01:34:46;;;;;;;12.10;9.67;;;5.60;46.30;;;;;;5020628;28;20205;-66
2022/03/21 01:37:12;;;;;;;13.33;9.17;;;5.60;46.40;;;;;;5011479;28;20298;-67
2022/03/21 01:39:37;;;;;;;13.20;9.63;;;5.50;46.60;;;;;;5009456;28;20204;-67
2022/03/21 01:42:03;;;;;;;10.83;8.67;;;5.50;46.40;;;;;;5014191;28;20215;-68
2022/03/21 01:44:29;;;;;;;13.33;8.67;;;5.50;46.60;;;;;;5005681;28;20197;-69
2022/03/21 01:46:55;;;;;;;15.10;10.30;;;5.40;47.20;;;;;;5004186;28;20231;-71
2022/03/21 01:49:20;;;;;;;13.27;9.63;;;5.30;47.20;;;;;;5024835;28;20180;-70
2022/03/21 01:51:46;;;;;;;12.43;8.97;;;5.40;46.90;;;;;;5006832;28;20207;-68
2022/03/21 01:56:58;;;;;;;13.43;9.10;;;5.40;47.20;;;;;;5015907;28;20234;-67
2022/03/21 01:59:25;;;;;;;12.77;9.80;;;5.40;46.90;;;;;;5015262;28;20710;-68
2022/03/21 02:01:50;;;;;;;12.07;8.23;;;5.30;47.10;;;;;;5016248;28;20698;-67
2022/03/21 02:04:16;;;;;;;13.30;9.03;;;5.30;47.10;;;;;;5024473;28;20226;-67
2022/03/21 02:06:43;;;;;;;10.30;8.57;;;5.20;47.10;;;;;;5006862;28;20358;-66
2022/03/21 02:09:09;;;;;;;15.73;9.60;;;5.30;47.00;;;;;;5018820;28;20292;-68
2022/03/21 02:11:35;;;;;;;11.90;8.83;;;5.30;47.00;;;;;;5017173;28;20662;-71
2022/03/21 02:14:03;;;;;;;11.03;8.80;;;5.20;46.70;;;;;;5023618;28;20222;-72
2022/03/21 02:16:31;;;;;;;12.57;8.57;;;5.20;47.00;;;;;;5015847;28;20195;-70
2022/03/21 02:19:04;;;;;;;13.43;9.10;;;5.30;47.00;;;;;;5014122;28;20678;-70
2022/03/21 02:21:47;;;;;;;11.50;8.27;;;5.20;47.00;;;;;;5015978;28;20215;-66
2022/03/21 02:24:25;;;;;;;15.77;8.47;;;5.30;47.20;;;;;;5015740;28;20552;-72
2022/03/21 02:26:52;;;;;;;12.93;10.17;;;5.30;46.80;;;;;;5014495;28;20239;-70
2022/03/21 02:29:18;;;;;;;10.70;8.60;;;5.20;46.90;;;;;;5016149;28;20215;-71
2022/03/21 02:31:44;;;;;;;13.27;9.87;;;5.30;47.20;;;;;;5013932;28;20242;-72
2022/03/21 02:34:10;;;;;;;13.37;9.60;;;5.10;47.50;;;;;;5022791;28;20179;-72
2022/03/21 02:36:37;;;;;;;12.77;8.97;;;5.00;47.60;;;;;;5006701;28;20204;-71
2022/03/21 02:39:03;;;;;;;11.90;7.70;;;5.00;47.70;;;;;;5018177;28;20188;-71
2022/03/21 02:41:28;;;;;;;12.30;9.53;;;5.00;47.60;;;;;;5016233;28;20201;-71
2022/03/21 02:43:58;;;;;;;13.60;9.47;;;5.00;47.80;;;;;;5016805;28;20503;-70
2022/03/21 02:46:25;;;;;;;10.93;8.73;;;5.00;47.70;;;;;;5018673;28;20567;-71
2022/03/21 02:48:53;;;;;;;13.73;9.60;;;4.80;48.10;;;;;;5019202;28;20199;-71
2022/03/21 02:51:20;;;;;;;12.03;9.20;;;4.80;48.40;;;;;;5019736;28;20203;-70
2022/03/21 02:53:49;;;;;;;12.40;9.20;;;4.90;48.10;;;;;;5019538;28;20267;-71
2022/03/21 02:56:15;;;;;;;15.43;9.73;;;4.80;48.40;;;;;;5019161;28;20308;-71
2022/03/21 02:58:40;;;;;;;13.37;10.03;;;4.70;48.70;;;;;;5019955;28;20706;-71
2022/03/21 03:01:11;;;;;;;11.23;8.97;;;4.80;48.60;;;;;;5015548;28;20203;-70
2022/03/21 03:03:36;;;;;;;12.90;9.27;;;4.80;48.60;;;;;;5020682;28;20220;-71
2022/03/21 03:06:02;;;;;;;14.37;9.30;;;4.80;48.70;;;;;;5020596;28;20234;-70
2022/03/21 03:08:29;;;;;;;13.73;10.63;;;4.60;48.80;;;;;;5014671;28;20203;-67
2022/03/21 03:10:54;;;;;;;13.50;9.47;;;4.60;49.00;;;;;;5020562;28;20721;-66
2022/03/21 03:13:20;;;;;;;11.20;9.70;;;4.50;49.30;;;;;;5009767;28;20290;-70
2022/03/21 03:15:47;;;;;;;16.80;9.77;;;4.50;50.00;;;;;;5022067;28;20199;-69
2022/03/21 03:18:13;;;;;;;11.40;8.03;;;4.40;49.70;;;;;;5007563;28;20678;-71
2022/03/21 03:20:53;;;;;;;15.17;10.37;;;4.50;49.60;;;;;;5023752;28;20196;-74
2022/03/21 03:23:21;;;;;;;15.47;9.63;;;4.30;49.80;;;;;;5012699;28;20210;-73
2022/03/21 03:25:52;;;;;;;13.43;9.93;;;4.30;50.00;;;;;;5011054;28;20243;-74
2022/03/21 03:28:17;;;;;;;12.37;10.13;;;4.20;50.10;;;;;;5009425;28;20219;-74
2022/03/21 03:30:43;;;;;;;11.97;9.10;;;4.20;50.30;;;;;;5016822;28;20203;-74
2022/03/21 03:33:09;;;;;;;14.63;9.20;;;4.20;50.00;;;;;;5014911;28;20258;-74
2022/03/21 03:35:35;;;;;;;13.57;8.63;;;4.20;49.80;;;;;;5019889;28;20196;-74
2022/03/21 03:38:01;;;;;;;13.37;10.53;;;4.20;50.40;;;;;;5023500;28;20579;-70
2022/03/21 03:40:27;;;;;;;12.67;9.93;;;4.10;50.40;;;;;;5023823;28;20294;-70
2022/03/21 03:42:52;;;;;;;14.10;10.33;;;4.00;50.50;;;;;;5005008;28;20290;-70
2022/03/21 03:45:19;;;;;;;13.13;10.60;;;4.00;50.40;;;;;;5009338;28;20235;-70
2022/03/21 03:47:44;;;;;;;16.63;11.00;;;4.10;50.60;;;;;;5023399;28;20226;-71
2022/03/21 03:50:10;;;;;;;16.73;10.83;;;4.00;50.80;;;;;;5013475;28;20195;-70
2022/03/21 03:52:35;;;;;;;13.57;10.43;;;4.00;50.80;;;;;;5016340;28;20558;-70
2022/03/21 03:55:01;;;;;;;16.43;10.63;;;3.90;50.70;;;;;;5017966;28;20194;-70
2022/03/21 03:57:26;;;;;;;15.63;11.57;;;3.90;50.80;;;;;;5016050;28;20223;-71
2022/03/21 03:59:52;;;;;;;14.53;11.10;;;3.90;51.00;;;;;;5019025;28;20553;-70
2022/03/21 04:02:17;;;;;;;20.50;11.47;;;4.00;50.80;;;;;;5016701;28;20236;-70
2022/03/21 04:04:43;;;;;;;15.73;10.50;;;3.90;50.80;;;;;;5014792;28;20199;-70
2022/03/21 04:07:09;;;;;;;16.50;11.03;;;3.90;50.90;;;;;;5004224;28;20215;-69
2022/03/21 04:09:35;;;;;;;16.80;11.80;;;3.80;51.10;;;;;;5019751;28;20666;-70
2022/03/21 04:12:02;;;;;;;14.17;10.67;;;3.70;51.40;;;;;;5021588;28;20196;-70
2022/03/21 04:14:28;;;;;;;19.17;11.87;;;3.70;51.60;;;;;;5013327;28;20184;-70
2022/03/21 04:16:54;;;;;;;16.63;11.40;;;3.80;51.30;;;;;;5009410;28;20561;-70
2022/03/21 04:19:19;;;;;;;19.20;12.30;;;3.70;51.40;;;;;;5012348;28;20199;-71
2022/03/21 04:21:45;;;;;;;19.57;10.67;;;3.70;51.70;;;;;;5012676;28;20211;-70
2022/03/21 04:24:11;;;;;;;16.80;11.63;;;3.70;51.50;;;;;;5017271;28;20194;-71
2022/03/21 04:26:36;;;;;;;16.50;12.50;;;3.70;51.30;;;;;;5014749;28;20234;-71
2022/03/21 04:29:04;;;;;;;21.30;11.87;;;3.70;51.50;;;;;;5016809;28;20215;-71
2022/03/21 04:31:33;;;;;;;15.53;11.70;;;3.60;51.50;;;;;;5007198;28;20199;-72
2022/03/21 04:33:59;;;;;;;19.43;12.20;;;3.60;52.00;;;;;;5017716;28;20200;-73
2022/03/21 04:36:25;;;;;;;15.10;12.07;;;3.50;51.50;;;;;;5014703;28;20723;-70
2022/03/21 04:38:50;;;;;;;17.87;12.20;;;3.50;51.80;;;;;;5012792;28;20203;-69
2022/03/21 04:41:16;;;;;;;17.73;12.37;;;3.60;51.70;;;;;;5017207;28;20536;-69
2022/03/21 04:43:42;;;;;;;18.40;11.80;;;3.50;51.60;;;;;;5012906;28;20253;-69
2022/03/21 04:46:07;;;;;;;22.23;13.00;;;3.50;51.80;;;;;;5020003;28;20187;-69
2022/03/21 04:48:33;;;;;;;19.00;12.57;;;3.60;51.70;;;;;;5013913;28;20273;-67
2022/03/21 04:50:59;;;;;;;17.17;12.27;;;3.60;51.50;;;;;;5006599;28;20195;-67
2022/03/21 04:53:24;;;;;;;16.70;11.90;;;3.60;51.30;;;;;;5013881;28;20855;-67
2022/03/21 04:55:51;;;;;;;19.30;13.33;;;3.50;52.00;;;;;;5014332;28;20609;-67
2022/03/21 04:58:16;;;;;;;18.13;12.80;;;3.60;51.50;;;;;;5008438;28;20226;-69
2022/03/21 05:00:44;;;;;;;17.87;12.50;;;3.60;51.60;;;;;;5014753;28;20655;-69
2022/03/21 05:03:09;;;;;;;18.40;11.77;;;3.60;51.10;;;;;;5004052;28;20203;-69
2022/03/21 05:05:35;;;;;;;19.97;13.27;;;3.50;51.40;;;;;;5022008;28;20184;-70
2022/03/21 05:08:02;;;;;;;18.27;11.83;;;3.50;51.70;;;;;;5005897;28;20592;-70
2022/03/21 05:10:28;;;;;;;18.57;12.20;;;3.50;51.60;;;;;;5001619;28;20200;-72
2022/03/21 05:12:53;;;;;;;18.43;11.60;;;3.50;51.40;;;;;;5020428;28;20874;-73
2022/03/21 05:15:19;;;;;;;20.00;13.10;;;3.50;51.80;;;;;;5013845;28;20208;-72
2022/03/21 05:17:45;;;;;;;18.27;13.43;;;3.40;52.00;;;;;;5015968;28;20575;-71
2022/03/21 05:20:15;;;;;;;17.03;12.20;;;3.40;51.80;;;;;;5021004;28;20230;-71
2022/03/21 05:22:40;;;;;;;16.73;12.13;;;3.40;52.00;;;;;;5018659;28;20422;-71
2022/03/21 05:36:03;;;;;;;21.03;13.93;;;3.50;51.50;;;;;;5017559;28;20247;-72
2022/03/21 05:38:30;;;;;;;17.87;14.13;;;3.40;51.70;;;;;;5020869;28;20228;-72
2022/03/21 05:41:00;;;;;;;18.37;12.47;;;3.40;52.00;;;;;;5017505;28;20649;-73
2022/03/21 05:43:27;;;;;;;18.67;13.23;;;3.40;52.20;;;;;;5012385;28;20218;-72
2022/03/21 05:45:52;;;;;;;18.90;13.27;;;3.40;52.00;;;;;;5009300;28;20567;-72
2022/03/21 05:51:04;;;;;;;19.60;11.97;;;3.50;51.80;;;;;;5015068;28;20211;-73
2022/03/21 05:53:30;;;;;;;17.67;11.27;;;3.60;51.40;;;;;;5007339;28;20774;-72
2022/03/21 05:55:59;;;;;;;19.80;12.53;;;3.60;51.60;;;;;;5019593;28;20206;-72
2022/03/21 05:58:28;;;;;;;18.30;12.67;;;3.60;51.60;;;;;;5012173;28;20208;-73
2022/03/21 06:00:55;;;;;;;18.30;12.03;;;3.60;51.30;;;;;;5018132;28;20196;-73
2022/03/21 06:03:20;;;;;;;25.13;12.57;;;3.50;51.20;;;;;;5011229;28;20212;-72
2022/03/21 06:05:46;;;;;;;18.10;12.50;;;3.70;50.90;;;;;;5021362;28;20478;-72
2022/03/21 06:08:12;;;;;;;20.13;11.97;;;3.80;50.80;;;;;;5010419;28;20302;-71
2022/03/21 06:10:37;;;;;;;17.43;12.13;;;3.80;50.60;;;;;;5020305;28;20188;-71
2022/03/21 06:13:08;;;;;;;19.57;12.27;;;3.80;50.20;;;;;;5009370;28;20247;-67
2022/03/21 06:15:37;;;;;;;18.03;11.47;;;3.80;50.20;;;;;;5015840;28;20199;-69
2022/03/21 06:18:09;;;;;;;21.37;12.60;;;4.00;50.00;;;;;;5022798;28;20693;-68
2022/03/21 06:20:36;;;;;;;19.53;12.50;;;4.10;49.70;;;;;;5019295;28;20195;-70
2022/03/21 06:23:02;;;;;;;16.10;11.70;;;4.20;49.20;;;;;;5011921;28;20208;-71
2022/03/21 06:25:27;;;;;;;17.00;12.37;;;4.20;49.00;;;;;;5009282;28;20243;-69
2022/03/21 06:27:53;;;;;;;20.00;12.27;;;4.20;48.80;;;;;;5018172;28;20211;-70
2022/03/21 06:30:18;;;;;;;16.13;10.00;;;4.10;49.20;;;;;;5020137;28;20192;-70
2022/03/21 06:32:44;;;;;;;20.20;12.43;;;4.10;49.20;;;;;;5018253;28;20279;-72
2022/03/21 06:35:09;;;;;;;18.17;12.13;;;4.20;49.10;;;;;;5012485;28;20203;-72
2022/03/21 06:37:36;;;;;;;16.73;11.63;;;4.20;49.10;;;;;;5019510;28;20670;-74
2022/03/21 06:40:02;;;;;;;16.40;10.10;;;4.30;49.00;;;;;;5011958;28;20721;-70
2022/03/21 06:42:28;;;;;;;23.63;11.33;;;4.30;49.30;;;;;;5014126;28;20658;-70
2022/03/21 06:44:53;;;;;;;17.37;11.90;;;4.40;48.90;;;;;;5018834;28;20204;-70
2022/03/21 06:47:19;;;;;;;18.03;12.27;;;4.50;48.90;;;;;;5008502;28;20215;-70
2022/03/21 06:49:46;;;;;;;16.33;11.77;;;4.50;49.00;;;;;;5014516;28;20204;-70
2022/03/21 06:52:12;;;;;;;17.60;12.30;;;4.40;48.80;;;;;;5015378;28;20187;-71
2022/03/21 06:54:39;;;;;;;17.07;12.97;;;4.60;49.00;;;;;;5015196;28;20305;-70
2022/03/21 06:57:05;;;;;;;22.23;14.00;;;4.50;48.80;;;;;;5008368;28;20259;-70
2022/03/21 06:59:31;;;;;;;15.50;11.57;;;4.50;49.20;;;;;;5018482;28;20197;-70
2022/03/21 07:01:57;;;;;;;16.07;11.40;;;4.60;48.90;;;;;;5008659;28;20208;-69
2022/03/21 07:04:23;;;;;;;20.63;12.47;;;4.60;48.60;;;;;;5015705;28;20259;-69
2022/03/21 07:06:49;;;;;;;17.47;11.37;;;4.70;48.30;;;;;;5016907;28;20331;-69
2022/03/21 07:09:15;;;;;;;18.93;10.97;;;4.80;48.20;;;;;;5019135;28;20243;-69
2022/03/21 07:11:41;;;;;;;21.83;11.17;;;4.80;48.00;;;;;;5012950;28;20770;-72
2022/03/21 07:14:06;;;;;;;20.00;11.47;;;5.00;47.60;;;;;;5024004;28;20780;-71
2022/03/21 07:16:32;;;;;;;15.93;11.47;;;5.10;47.30;;;;;;5005723;28;20548;-76
2022/03/21 07:18:58;;;;;;;16.60;11.23;;;5.10;47.00;;;;;;5016538;28;20196;-71
2022/03/21 07:21:24;;;;;;;20.00;11.30;;;5.30;46.90;;;;;;5018666;28;20204;-70
2022/03/21 07:23:49;;;;;;;15.80;9.93;;;5.30;46.50;;;;;;5019320;28;20203;-69
2022/03/21 07:26:15;;;;;;;15.30;10.27;;;5.30;46.70;;;;;;4996272;28;20243;-69
2022/03/21 07:28:44;;;;;;;13.80;11.07;;;5.40;46.50;;;;;;5017009;28;20189;-71
2022/03/21 07:31:10;;;;;;;18.90;10.47;;;5.50;46.60;;;;;;5014020;28;20196;-69
2022/03/21 07:33:40;;;;;;;15.47;10.83;;;5.60;46.10;;;;;;5017447;28;20560;-71
2022/03/21 07:36:07;;;;;;;12.80;10.20;;;5.70;45.90;;;;;;5016126;28;20243;-70
2022/03/21 07:38:33;;;;;;;18.50;11.20;;;5.90;45.40;;;;;;5012959;28;20282;-71
2022/03/21 07:40:59;;;;;;;20.87;10.87;;;5.90;45.60;;;;;;5015297;28;20211;-69
2022/03/21 07:43:28;;;;;;;14.97;8.97;;;5.90;45.10;;;;;;5020430;28;21003;-70
2022/03/21 07:48:37;;;;;;;15.03;9.40;;;6.10;44.20;;;;;;5022755;28;20708;-68
2022/03/21 07:51:07;;;;;;;11.73;9.20;;;6.20;43.90;;;;;;5015034;28;20204;-69
2022/03/21 07:53:33;;;;;;;11.97;9.13;;;6.30;43.50;;;;;;5019385;28;20652;-69
2022/03/21 07:55:59;;;;;;;13.37;8.23;;;6.40;43.50;;;;;;5013709;28;20741;-70
2022/03/21 07:58:26;;;;;;;13.13;8.93;;;6.50;43.10;;;;;;5014838;28;20195;-69
2022/03/21 08:00:52;;;;;;;12.03;9.57;;;6.60;43.20;;;;;;5003875;28;20208;-69
2022/03/21 08:03:18;;;;;;;15.23;9.40;;;6.50;43.40;;;;;;5021744;28;20188;-71
2022/03/21 08:05:43;;;;;;;13.47;8.90;;;6.50;43.20;;;;;;5004497;28;20196;-68
2022/03/21 08:08:09;;;;;;;14.37;9.53;;;6.40;43.20;;;;;;5017906;28;20207;-69
2022/03/21 08:10:35;;;;;;;13.50;8.33;;;6.50;43.20;;;;;;5005023;28;20723;-69
2022/03/21 08:13:01;;;;;;;13.47;9.50;;;6.60;43.20;;;;;;5016717;28;20176;-70
2022/03/21 08:15:26;;;;;;;15.70;9.93;;;6.80;43.40;;;;;;5004660;28;20287;-70
2022/03/21 08:18:00;;;;;;;11.57;7.63;;;6.90;42.80;;;;;;5006469;28;20180;-70
2022/03/21 08:20:33;;;;;;;13.30;9.03;;;6.90;42.40;;;;;;5010973;28;20199;-69
2022/03/21 08:23:09;;;;;;;12.10;9.63;;;7.00;42.60;;;;;;5017364;28;20207;-69
2022/03/21 08:25:36;;;;;;;12.37;8.53;;;7.00;42.90;;;;;;5022066;28;20231;-69
2022/03/21 08:28:01;;;;;;;12.63;8.47;;;7.10;42.50;;;;;;5016075;28;20701;-69
2022/03/21 08:30:29;;;;;;;9.57;6.93;;;7.20;42.30;;;;;;5013638;28;20240;-69
2022/03/21 08:32:55;;;;;;;12.57;9.03;;;7.30;42.00;;;;;;5005926;28;20673;-69
2022/03/21 08:35:21;;;;;;;10.97;7.70;;;7.30;41.70;;;;;;5022940;28;20290;-69
2022/03/21 08:37:47;;;;;;;7.47;6.03;;;7.40;41.50;;;;;;5009565;28;20285;-68
2022/03/21 08:40:14;;;;;;;11.30;8.33;;;7.40;41.10;;;;;;5004457;28;20200;-70
2022/03/21 08:42:40;;;;;;;11.70;6.90;;;7.50;41.10;;;;;;5020423;28;20785;-71
2022/03/21 08:45:07;;;;;;;10.00;8.27;;;7.50;40.80;;;;;;5016402;28;20352;-69
2022/03/21 08:47:34;;;;;;;8.30;6.97;;;7.60;40.70;;;;;;5012499;28;20656;-68
2022/03/21 08:49:59;;;;;;;10.53;7.43;;;7.50;40.20;;;;;;5016671;28;20258;-69
2022/03/21 08:52:25;;;;;;;10.23;7.50;;;7.60;40.50;;;;;;5013928;28;20193;-69
2022/03/21 08:54:51;;;;;;;10.63;6.63;;;7.80;40.50;;;;;;5012112;28;20207;-68
2022/03/21 08:57:16;;;;;;;12.50;7.57;;;7.90;40.10;;;;;;5012035;28;20263;-69
2022/03/21 08:59:42;;;;;;;13.20;6.93;;;8.00;39.70;;;;;;5013148;28;20239;-70
2022/03/21 09:02:08;;;;;;;7.67;6.07;;;8.10;39.10;;;;;;5005958;28;20215;-67
2022/03/21 09:04:35;;;;;;;10.20;7.27;;;8.00;38.60;;;;;;5012788;28;20284;-70
2022/03/21 09:07:01;;;;;;;6.23;4.73;;;8.10;38.90;;;;;;5005432;28;20666;-69
2022/03/21 09:09:26;;;;;;;10.83;7.17;;;8.20;38.30;;;;;;5005223;28;20242;-68
2022/03/21 09:11:52;;;;;;;7.63;6.53;;;8.30;38.30;;;;;;5005931;28;20192;-67
2022/03/21 09:14:18;;;;;;;6.77;5.73;;;8.30;38.30;;;;;;5009553;28;20243;-66
2022/03/21 09:16:43;;;;;;;8.53;6.37;;;8.30;38.40;;;;;;5017518;28;20243;-68
2022/03/21 09:19:10;;;;;;;8.60;7.07;;;8.30;38.80;;;;;;5010044;28;21032;-68
2022/03/21 09:21:36;;;;;;;10.80;6.73;;;8.40;38.20;;;;;;5019988;28;20199;-68
2022/03/21 09:24:03;;;;;;;9.57;7.30;;;8.40;38.40;;;;;;5010990;28;20199;-68
2022/03/21 09:26:29;;;;;;;9.17;7.33;;;8.40;38.30;;;;;;5012079;28;20533;-69
2022/03/21 09:29:02;;;;;;;7.77;6.53;;;8.50;38.70;;;;;;5006151;28;20276;-67
2022/03/21 09:31:29;;;;;;;8.90;6.57;;;8.80;38.20;;;;;;5018841;28;20356;-73
2022/03/21 09:33:55;;;;;;;8.17;6.43;;;8.80;38.70;;;;;;5020379;28;20286;-68
2022/03/21 09:36:21;;;;;;;10.80;7.17;;;8.90;38.10;;;;;;5016807;28;20201;-72
2022/03/21 09:38:47;;;;;;;7.30;6.53;;;9.00;38.10;;;;;;5013803;28;20691;-67
2022/03/21 09:41:13;;;;;;;9.97;7.37;;;9.00;38.20;;;;;;5013022;28;20205;-69
2022/03/21 09:43:39;;;;;;;10.57;7.80;;;9.00;38.30;;;;;;5014463;28;20203;-69
2022/03/21 09:46:07;;;;;;;12.27;7.83;;;9.10;38.30;;;;;;5015125;28;20200;-69
2022/03/21 09:48:34;;;;;;;10.07;7.53;;;9.10;38.30;;;;;;5011594;28;20252;-69
2022/03/21 09:51:10;;;;;;;15.17;10.00;;;9.10;38.20;;;;;;5003901;28;20286;-69
2022/03/21 09:53:38;;;;;;;8.53;6.90;;;9.10;38.30;;;;;;5021351;28;20185;-67
2022/03/21 09:56:04;;;;;;;9.17;7.40;;;9.10;39.10;;;;;;5013327;28;20201;-69
2022/03/21 09:58:32;;;;;;;17.07;7.60;;;9.30;39.00;;;;;;5011048;28;20195;-69
2022/03/21 10:00:58;;;;;;;10.47;7.33;;;9.50;38.50;;;;;;5004857;28;20212;-67
2022/03/21 10:03:24;;;;;;;10.63;7.63;;;9.60;38.70;;;;;;4992604;28;20278;-68
2022/03/21 10:05:50;;;;;;;8.13;5.97;;;9.60;38.50;;;;;;5003905;28;20208;-68
2022/03/21 10:08:21;;;;;;;10.57;8.20;;;9.70;37.30;;;;;;5013981;28;20304;-68
2022/03/21 10:10:58;;;;;;;9.10;6.40;;;9.70;37.20;;;;;;5017867;28;20196;-69
2022/03/21 10:13:26;;;;;;;7.67;6.20;;;9.60;37.10;;;;;;5021808;28;20308;-69
2022/03/21 10:16:13;;;;;;;14.43;7.07;;;9.70;36.90;;;;;;5025588;28;20200;-69
2022/03/21 10:18:54;;;;;;;10.60;7.00;;;9.90;36.90;;;;;;5011210;28;20194;-70
2022/03/21 10:21:25;;;;;;;9.83;6.67;;;9.80;36.80;;;;;;5015013;28;20932;-68
2022/03/21 10:23:59;;;;;;;12.37;8.37;;;10.00;35.30;;;;;;5015286;28;20201;-69
2022/03/21 10:26:33;;;;;;;8.13;6.43;;;10.00;35.80;;;;;;5023287;28;20254;-69
2022/03/21 10:29:02;;;;;;;9.17;6.50;;;10.00;35.20;;;;;;5017297;28;20196;-70
2022/03/21 10:31:40;;;;;;;8.23;6.70;;;10.00;35.40;;;;;;5007550;28;20215;-69
2022/03/21 10:34:09;;;;;;;8.33;7.40;;;10.10;35.30;;;;;;5020441;28;20197;-70
2022/03/21 10:36:35;;;;;;;6.67;5.53;;;10.20;35.20;;;;;;5017194;28;20206;-71
2022/03/21 10:39:11;;;;;;;9.47;7.63;;;10.20;35.40;;;;;;5016171;28;20205;-72
2022/03/21 10:41:39;;;;;;;10.47;7.33;;;10.30;35.70;;;;;;5017202;28;20397;-71
2022/03/21 10:44:06;;;;;;;7.90;6.80;;;10.40;35.90;;;;;;5017424;28;20670;-71
2022/03/21 10:46:31;;;;;;;9.30;7.53;;;10.40;34.90;;;;;;5023141;28;20215;-71
2022/03/21 10:49:06;;;;;;;8.00;6.63;;;10.50;35.00;;;;;;5018740;28;20193;-71
2022/03/21 10:51:53;;;;;;;7.23;6.53;;;10.80;35.30;;;;;;5016323;28;20206;-70
2022/03/21 10:54:48;;;;;;;11.00;7.10;;;11.00;34.80;;;;;;5009838;28;20826;-70
2022/03/21 10:57:38;;;;;;;10.43;6.50;;;11.10;34.50;;;;;;5015729;28;20514;-69
2022/03/21 11:00:14;;;;;;;9.93;7.07;;;11.20;34.00;;;;;;5014429;28;20692;-71
2022/03/21 11:02:51;;;;;;;7.90;6.37;;;11.40;34.10;;;;;;5015041;28;20259;-70
2022/03/21 11:05:18;;;;;;;10.87;6.83;;;11.60;34.20;;;;;;5017092;28;20328;-70
2022/03/21 11:07:47;;;;;;;8.23;6.93;;;11.80;34.70;;;;;;5014760;28;20217;-70
2022/03/21 11:10:13;;;;;;;10.30;7.00;;;11.90;34.10;;;;;;5017420;28;20200;-71
2022/03/21 11:12:42;;;;;;;8.23;6.30;;;12.30;35.70;;;;;;5022296;28;20245;-70
2022/03/21 11:15:17;;;;;;;8.43;6.33;;;12.40;34.00;;;;;;5005299;28;20291;-71
2022/03/21 11:17:44;;;;;;;10.57;7.47;;;12.50;33.70;;;;;;5018320;28;20219;-70
2022/03/21 11:20:11;;;;;;;10.53;7.37;;;12.40;34.00;;;;;;5016648;28;20762;-70
2022/03/21 11:22:39;;;;;;;8.47;6.57;;;12.60;33.90;;;;;;5018159;28;20192;-71
2022/03/21 11:25:07;;;;;;;8.07;6.87;;;12.60;33.40;;;;;;5019229;28;20223;-70
2022/03/21 11:28:01;;;;;;;9.83;6.87;;;12.60;33.40;;;;;;5012507;28;20212;-72
2022/03/21 11:30:43;;;;;;;11.70;6.97;;;12.70;33.80;;;;;;4995960;28;20206;-71
2022/03/21 11:33:35;;;;;;;10.63;6.87;;;12.90;32.90;;;;;;5013457;28;20731;-71
2022/03/21 11:36:06;;;;;;;13.63;7.87;;;13.10;33.30;;;;;;5018630;28;20834;-70
2022/03/21 11:38:41;;;;;;;9.33;7.57;;;13.10;32.80;;;;;;5020982;28;20190;-71
2022/03/21 11:41:22;;;;;;;8.57;6.73;;;13.10;32.60;;;;;;5013166;28;20944;-71
2022/03/21 11:44:06;;;;;;;8.47;6.43;;;13.10;32.70;;;;;;5022814;28;20195;-68
2022/03/21 11:46:38;;;;;;;9.27;7.20;;;13.40;32.40;;;;;;5014486;28;20199;-75
2022/03/21 11:49:25;;;;;;;10.70;6.87;;;13.40;31.90;;;;;;5015397;28;20192;-74
2022/03/21 11:52:01;;;;;;;10.60;7.00;;;13.60;32.30;;;;;;5015414;28;20206;-73
2022/03/21 11:54:36;;;;;;;8.40;6.70;;;13.70;32.00;;;;;;5006506;28;20218;-70
2022/03/21 11:57:10;;;;;;;8.93;6.37;;;13.90;32.50;;;;;;5006201;28;20207;-74
2022/03/21 11:59:35;;;;;;;10.73;6.77;;;14.00;31.60;;;;;;5008726;28;20180;-75
2022/03/21 12:02:22;;;;;;;7.40;6.67;;;13.90;31.60;;;;;;4994409;28;20215;-76
2022/03/21 12:05:02;;;;;;;7.73;6.03;;;14.00;31.20;;;;;;5022287;28;20293;-74
2022/03/21 12:07:29;;;;;;;6.63;5.67;;;14.10;30.80;;;;;;5017048;28;20259;-74
2022/03/21 12:09:56;;;;;;;7.33;6.00;;;14.20;30.00;;;;;;5019086;28;20207;-73
2022/03/21 12:12:43;;;;;;;5.50;5.00;;;14.40;29.80;;;;;;5004761;28;20659;-74
2022/03/21 12:15:17;;;;;;;6.50;5.90;;;14.60;30.30;;;;;;5018184;28;20198;-74
2022/03/21 12:17:50;;;;;;;6.40;5.03;;;14.90;29.80;;;;;;5005156;28;20254;-74
2022/03/21 12:20:18;;;;;;;6.53;5.93;;;14.90;29.40;;;;;;5014824;28;20298;-74
2022/03/21 12:22:47;;;;;;;6.57;5.87;;;14.90;29.20;;;;;;5016495;28;20208;-73
2022/03/21 12:25:27;;;;;;;10.33;6.00;;;14.80;29.10;;;;;;5017945;28;20282;-72
2022/03/21 12:27:58;;;;;;;8.60;6.30;;;14.70;29.40;;;;;;5020054;28;20273;-71
2022/03/21 12:30:23;;;;;;;7.23;6.53;;;15.00;29.30;;;;;;5013439;28;20203;-72
2022/03/21 12:32:52;;;;;;;7.27;5.80;;;15.10;29.60;;;;;;5018817;28;20535;-72
2022/03/21 12:35:34;;;;;;;9.30;5.90;;;15.30;29.10;;;;;;5018266;28;20208;-71
2022/03/21 12:38:05;;;;;;;8.83;5.63;;;15.30;29.10;;;;;;5005128;28;20703;-72
2022/03/21 12:40:32;;;;;;;6.17;5.57;;;15.30;29.40;;;;;;5018728;28;20305;-73
2022/03/21 12:43:00;;;;;;;6.80;6.00;;;15.50;28.60;;;;;;5019191;28;20200;-75
2022/03/21 12:45:26;;;;;;;6.63;6.03;;;15.50;28.80;;;;;;5014372;28;20666;-74
2022/03/21 12:48:00;;;;;;;9.97;6.97;;;15.80;28.90;;;;;;5014090;28;20220;-73
2022/03/21 12:50:29;;;;;;;11.03;6.10;;;15.90;28.70;;;;;;5018102;28;20212;-72
2022/03/21 12:53:00;;;;;;;7.40;5.73;;;16.20;28.70;;;;;;5024255;28;20184;-73
2022/03/21 12:55:26;;;;;;;9.20;6.23;;;16.40;28.40;;;;;;5018023;28;20671;-73
2022/03/21 12:57:57;;;;;;;8.63;6.07;;;16.50;28.30;;;;;;5025130;28;20183;-71
2022/03/21 13:00:26;;;;;;;6.97;6.27;;;16.30;27.60;;;;;;5013011;28;20211;-73
2022/03/21 13:02:55;;;;;;;8.87;5.63;;;16.10;28.20;;;;;;5018282;28;20199;-72
2022/03/21 13:10:54;;;;;;;6.10;5.27;;;17.20;27.80;;;;;;5016967;28;20191;-72
2022/03/21 13:13:22;;;;;;;6.67;5.80;;;17.20;27.40;;;;;;5011859;28;20238;-73